Impacts METAR Board
IDs:

KCLT - Charlotte/Douglas In, NC, US

Updated at: 2300 UTC 19 Jan 2019
Potential Impact None Slight Moderate High
Time 19/11Z 19/12Z 19/13Z 19/14Z 19/15Z 19/16Z 19/17Z 19/18Z 19/19Z 19/20Z 19/21Z 19/22Z 19/23Z
Temp44 45 46 46 47 48 49 50 52 53 55 56 56
Dewpt43 43 43 45 47 47 48 50 51 53 54 55 55
Altim30.07 30.05 30.04 30.03 30.04 30.01 29.99 29.92 29.87 29.83 29.79 29.75 29.72
VIS5 3 2.5 1.75 0.75 1.75 1.25 0.75 2 2 2 2 2
CIG35 20 10 6 4 4 4 3 5 5 5 6 6
CoverOVCOVCOVCOVCOVCOVCOVCOVCOVCOVCOVCOVCOVC
FltCatMVFRMVFRIFRIFRLIFRLIFRLIFRLIFRIFRIFRIFRIFRIFR
WXBRBRBRBRBRBRBRBRBR-RA BRBR-RA BRBR
WDir1708009090110150130140150160160160
WSpd3 5 5 6 6 7 8 9 9 14 12 8 4
WGst-- -- -- -- -- -- -- -- -- -- -- -- --
Raw hourly METARs
KCLT 191052Z 17003KT 5SM BR FEW011 BKN035 OVC045 07/06 A3007 RMK AO2 SLP181 T00670061
KCLT 191152Z 08005KT 3SM BR FEW007 BKN020 OVC050 07/06 A3005 RMK AO2 SLP175 T00720061 10078 20061 58015
KCLT 191252Z VRB05KT 2 1/2SM BR OVC010 08/06 A3004 RMK AO2 SLP173 T00780061
KCLT 191352Z 09006KT 1 3/4SM BR BKN006 OVC010 08/07 A3003 RMK AO2 RAB1258E45 SLP170 P0001 T00780072
KCLT 191452Z 09006KT 3/4SM R18C/P6000FT BR OVC004 08/08 A3004 RMK AO2 SLP173 60001 T00830083 55001
KCLT 191552Z 11007KT 1 3/4SM BR OVC004 09/08 A3001 RMK AO2 RAB1457E10 SLP162 P0001 T00890083
KCLT 191652Z 15008KT 1 1/4SM BR OVC004 09/09 A2999 RMK AO2 RAB33E42 SLP157 P0000 T00940089
KCLT 191752Z 13009KT 3/4SM R18C/P6000FT BR OVC003 10/10 A2992 RMK AO2 RAB1658E08 PRESFR SLP131 P0000 60002 T01000100 10100 20072 58041
KCLT 191852Z 14009KT 2SM BR OVC005 11/11 A2987 RMK AO2 SFC VIS 2 1/2 SLP112 T01110106
KCLT 191952Z 15014KT 2SM -RA BR OVC005 12/12 A2983 RMK AO2 RAB10 SLP099 P0002 T01170117
KCLT 192052Z 16012KT 2SM BR OVC005 13/12 A2979 RMK AO2 SFC VIS 3 RAE27 SLP085 P0001 60003 T01280122 56044
KCLT 192152Z 16008KT 2SM -RA BR OVC006 13/13 A2975 RMK AO2 SFC VIS 4 RAB44 SLP072 P0000 T01330128
KCLT 192252Z 16004KT 2SM BR BKN006 OVC080 13/13 A2972 RMK AO2 SFC VIS 4 RAE2154 SLP064 P0000 T01330128



Page loaded:  23:10 UTC  |   03:10 PM Pacific  |   04:10 PM Mountain  |   05:10 PM Central  |   06:10 PM Eastern

 

ADVISORIES

FORECASTS

FORECASTS

OBSERVATIONS

USER TOOLS

ABOUT US